Time;durP1;ratioP1;P1;durP2;ratioP2;P2;SDS_P1;SDS_P2;PMS_P1;PMS_P2;Temp;Humidity;BMP_temperature;BMP_pressure;BME280_temperature;BME280_humidity;BME280_pressure;Samples;Min_cycle;Max_cycle;Signal;HPM_P1;HPM_P2
2022/07/30 00:01:50;;;;;;;7.75;3.85;;;;;;;;;;4959702;28;20054;-72
2022/07/30 00:04:20;;;;;;;7.05;3.95;;;;;;;;;;4959538;28;20047;-72
2022/07/30 00:06:50;;;;;;;;;;;;;;;;;;4960750;28;20463;-73
2022/07/30 00:09:19;;;;;;;11.00;4.30;;;;;;;;;;4961131;28;20279;-74
2022/07/30 00:11:49;;;;;;;;;;;;;;;;;;4960663;28;20078;-77
2022/07/30 00:14:19;;;;;;;7.03;3.55;;;;;;;;;;4961023;28;20002;-72
2022/07/30 00:16:49;;;;;;;8.85;4.80;;;;;;;;;;4959947;28;20082;-72
2022/07/30 00:19:20;;;;;;;6.13;3.80;;;;;;;;;;4958803;28;20050;-71
2022/07/30 00:21:54;;;;;;;6.43;4.05;;;;;;;;;;4959263;28;20050;-76
2022/07/30 00:24:25;;;;;;;7.43;4.18;;;;;;;;;;4958220;28;20539;-72
2022/07/30 00:26:54;;;;;;;;;;;;;;;;;;4959669;28;20503;-73
2022/07/30 00:29:25;;;;;;;7.55;3.67;;;;;;;;;;4942935;28;19929;-73
2022/07/30 00:31:56;;;;;;;7.22;4.03;;;;;;;;;;4960627;28;20050;-73
2022/07/30 00:34:26;;;;;;;9.05;4.88;;;;;;;;;;4959727;28;20058;-73
2022/07/30 00:36:56;;;;;;;8.13;4.20;;;;;;;;;;4960242;28;20438;-73
2022/07/30 00:39:28;;;;;;;9.70;4.22;;;;;;;;;;4959835;28;20066;-72
2022/07/30 00:42:00;;;;;;;6.85;4.15;;;;;;;;;;4944824;28;20548;-73
2022/07/30 00:44:30;;;;;;;6.45;3.85;;;;;;;;;;4965339;28;20051;-73
2022/07/30 00:47:01;;;;;;;11.30;4.43;;;;;;;;;;4942932;28;20058;-72
2022/07/30 00:49:32;;;;;;;6.82;3.30;;;;;;;;;;4949218;28;20062;-73
2022/07/30 00:52:02;;;;;;;5.82;3.63;;;;;;;;;;4970388;28;20406;-73
2022/07/30 00:54:31;;;;;;;;;;;;;;;;;;4953520;28;20046;-74
2022/07/30 00:57:01;;;;;;;6.90;3.40;;;;;;;;;;4960893;28;19927;-72
2022/07/30 00:59:32;;;;;;;5.60;3.22;;;;;;;;;;4958289;28;20443;-73
2022/07/30 01:02:02;;;;;;;4.90;2.78;;;;;;;;;;4955246;28;20418;-73
2022/07/30 01:04:31;;;;;;;;;;;;;;;;;;4948792;28;20047;-72
2022/07/30 01:07:01;;;;;;;5.13;2.40;;;;;;;;;;4931188;29;19926;-74
2022/07/30 01:09:31;;;;;;;6.03;2.63;;;;;;;;;;4930953;29;20059;-73
2022/07/30 01:12:01;;;;;;;5.07;2.75;;;;;;;;;;4930599;29;20055;-73
2022/07/30 01:14:31;;;;;;;6.22;2.58;;;;;;;;;;4948256;29;20086;-73
2022/07/30 01:17:02;;;;;;;5.28;2.75;;;;;;;;;;4948626;28;20916;-73
2022/07/30 01:19:47;;;;;;;4.85;2.50;;;;;;;;;;4931432;29;20062;-73
2022/07/30 01:22:29;;;;;;;6.32;2.55;;;;;;;;;;4949803;29;20495;-76
2022/07/30 01:25:15;;;;;;;4.32;2.83;;;;;;;;;;4949438;29;20046;-71
2022/07/30 01:28:03;;;;;;;8.57;3.55;;;;;;;;;;4931599;29;20047;-73
2022/07/30 01:30:38;;;;;;;5.18;3.00;;;;;;;;;;4931869;29;20055;-72
2022/07/30 01:33:14;;;;;;;6.13;3.15;;;;;;;;;;4932246;29;20608;-73
2022/07/30 01:35:47;;;;;;;4.75;2.70;;;;;;;;;;4917513;29;20055;-73
2022/07/30 01:38:21;;;;;;;5.35;3.70;;;;;;;;;;4949758;29;20526;-72
2022/07/30 01:40:54;;;;;;;4.40;2.88;;;;;;;;;;4932336;29;20062;-73
2022/07/30 01:43:26;;;;;;;5.57;3.40;;;;;;;;;;4931971;29;20543;-72
2022/07/30 01:45:57;;;;;;;4.63;3.10;;;;;;;;;;4932069;29;20779;-72
2022/07/30 01:48:29;;;;;;;4.97;2.83;;;;;;;;;;4949526;29;20050;-72
2022/07/30 01:51:03;;;;;;;6.85;2.45;;;;;;;;;;4949391;29;20059;-73
2022/07/30 01:53:39;;;;;;;4.88;2.88;;;;;;;;;;4931678;29;20059;-73
2022/07/30 01:56:13;;;;;;;6.25;2.53;;;;;;;;;;4932119;29;20062;-73
2022/07/30 01:58:47;;;;;;;4.43;2.60;;;;;;;;;;4931819;29;20059;-73
2022/07/30 02:01:24;;;;;;;4.68;2.72;;;;;;;;;;4931508;29;20068;-72
2022/07/30 02:04:01;;;;;;;4.47;3.20;;;;;;;;;;4931638;29;20066;-72
2022/07/30 02:06:46;;;;;;;6.60;3.58;;;;;;;;;;4931705;29;20384;-73
2022/07/30 02:09:24;;;;;;;4.00;2.95;;;;;;;;;;4931982;29;20066;-73
2022/07/30 02:15:14;;;;;;;5.68;3.47;;;;;;;;;;4931166;29;20059;-71
2022/07/30 02:18:14;;;;;;;8.25;3.38;;;;;;;;;;4942232;29;20515;-72
2022/07/30 02:20:53;;;;;;;7.43;3.47;;;;;;;;;;4931259;29;20059;-72
2022/07/30 02:23:25;;;;;;;8.15;4.00;;;;;;;;;;4931524;29;20489;-73
2022/07/30 02:25:59;;;;;;;6.03;3.17;;;;;;;;;;4949405;29;20051;-72
2022/07/30 02:28:31;;;;;;;5.97;3.67;;;;;;;;;;4931967;29;20066;-72
2022/07/30 02:31:04;;;;;;;5.25;2.90;;;;;;;;;;4947726;29;20414;-72
2022/07/30 02:33:49;;;;;;;3.70;2.45;;;;;;;;;;4931548;29;20058;-72
2022/07/30 02:36:20;;;;;;;6.03;3.15;;;;;;;;;;4931013;29;20055;-72
2022/07/30 02:38:51;;;;;;;4.80;3.00;;;;;;;;;;4948374;29;20495;-73
2022/07/30 02:41:24;;;;;;;5.93;3.40;;;;;;;;;;4931206;29;20063;-72
2022/07/30 02:43:55;;;;;;;6.07;3.65;;;;;;;;;;4931094;29;20144;-70
2022/07/30 02:46:30;;;;;;;7.03;3.50;;;;;;;;;;4931047;29;20051;-72
2022/07/30 02:49:19;;;;;;;6.00;3.75;;;;;;;;;;4951179;29;20059;-70
2022/07/30 02:51:50;;;;;;;6.38;3.40;;;;;;;;;;4932005;29;20406;-73
2022/07/30 02:54:24;;;;;;;7.15;3.28;;;;;;;;;;4948832;29;20393;-72
2022/07/30 02:56:56;;;;;;;4.55;3.00;;;;;;;;;;4931164;29;20059;-71
2022/07/30 02:59:29;;;;;;;5.97;3.22;;;;;;;;;;4930541;29;20090;-71
2022/07/30 03:02:01;;;;;;;4.80;3.00;;;;;;;;;;4931467;29;20431;-71
2022/07/30 03:04:33;;;;;;;4.65;2.63;;;;;;;;;;4930934;29;20419;-71
2022/07/30 03:07:06;;;;;;;4.75;3.00;;;;;;;;;;4931187;29;20066;-71
2022/07/30 03:09:40;;;;;;;4.55;3.10;;;;;;;;;;4948646;29;20411;-71
2022/07/30 03:12:21;;;;;;;4.03;2.63;;;;;;;;;;4930918;29;20059;-71
2022/07/30 03:14:52;;;;;;;5.63;3.25;;;;;;;;;;4931583;29;20054;-73
2022/07/30 03:17:25;;;;;;;5.47;2.88;;;;;;;;;;4930831;29;20415;-71
2022/07/30 03:19:56;;;;;;;5.45;3.95;;;;;;;;;;4931238;29;20059;-71
2022/07/30 03:22:28;;;;;;;5.57;2.83;;;;;;;;;;4930584;29;20063;-72
2022/07/30 03:25:02;;;;;;;7.75;3.17;;;;;;;;;;4930465;29;20066;-73
2022/07/30 03:27:35;;;;;;;5.50;3.30;;;;;;;;;;4930515;29;20055;-70
2022/07/30 03:30:06;;;;;;;8.63;4.88;;;;;;;;;;4931200;29;20051;-71
2022/07/30 03:32:38;;;;;;;7.38;5.00;;;;;;;;;;4931344;29;20070;-71
2022/07/30 03:35:10;;;;;;;7.65;4.60;;;;;;;;;;4930970;29;20047;-71
2022/07/30 03:37:47;;;;;;;5.47;3.85;;;;;;;;;;4948752;29;20047;-72
2022/07/30 03:40:18;;;;;;;7.50;4.28;;;;;;;;;;4930916;29;20055;-71
2022/07/30 03:42:49;;;;;;;6.13;2.97;;;;;;;;;;4930747;29;20062;-71
2022/07/30 03:45:23;;;;;;;5.60;3.05;;;;;;;;;;4930133;29;20071;-72
2022/07/30 03:48:00;;;;;;;4.68;3.28;;;;;;;;;;4930852;29;20051;-72
2022/07/30 03:50:36;;;;;;;5.47;3.60;;;;;;;;;;4930552;28;20062;-72
2022/07/30 03:53:08;;;;;;;5.65;3.75;;;;;;;;;;4951116;29;20055;-72
2022/07/30 03:55:59;;;;;;;5.60;3.67;;;;;;;;;;4951055;29;20066;-72
2022/07/30 03:58:48;;;;;;;5.15;3.00;;;;;;;;;;4951888;28;20051;-72
2022/07/30 04:01:19;;;;;;;4.30;2.95;;;;;;;;;;4934474;29;20055;-73
2022/07/30 04:03:49;;;;;;;4.07;2.53;;;;;;;;;;4932068;29;20059;-73
2022/07/30 04:06:19;;;;;;;4.55;2.72;;;;;;;;;;4934706;29;20055;-72
2022/07/30 04:08:48;;;;;;;4.38;2.97;;;;;;;;;;4937813;29;20059;-72
2022/07/30 04:11:18;;;;;;;5.55;2.78;;;;;;;;;;4933063;29;20427;-72
2022/07/30 04:14:10;;;;;;;4.07;2.28;;;;;;;;;;4930419;29;20420;-72
2022/07/30 04:17:02;;;;;;;5.18;2.55;;;;;;;;;;4930581;29;20656;-72
2022/07/30 04:19:47;;;;;;;8.98;3.92;;;;;;;;;;4931414;29;20046;-72
2022/07/30 04:22:25;;;;;;;6.85;3.60;;;;;;;;;;4930235;29;20086;-72
2022/07/30 04:24:56;;;;;;;7.35;3.83;;;;;;;;;;4932553;29;20052;-72
2022/07/30 04:27:27;;;;;;;4.15;2.78;;;;;;;;;;4932356;29;20039;-72
2022/07/30 04:29:57;;;;;;;5.43;3.17;;;;;;;;;;4930187;29;20058;-73
2022/07/30 04:32:27;;;;;;;5.32;2.65;;;;;;;;;;4930131;29;20059;-72
2022/07/30 04:35:29;;;;;;;5.72;2.75;;;;;;;;;;4920498;29;20071;-72
2022/07/30 04:38:37;;;;;;;4.10;2.63;;;;;;;;;;4930024;29;20052;-72
2022/07/30 04:41:07;;;;;;;;;;;;;;;;;;4932088;29;20519;-72
2022/07/30 04:43:57;;;;;;;3.80;2.53;;;;;;;;;;4920452;29;19927;-72
2022/07/30 04:46:28;;;;;;;4.35;2.47;;;;;;;;;;4930272;29;20052;-72
2022/07/30 04:48:58;;;;;;;5.13;2.78;;;;;;;;;;4929850;29;20055;-72
2022/07/30 04:51:34;;;;;;;4.97;3.00;;;;;;;;;;4929751;29;20647;-72
2022/07/30 04:54:07;;;;;;;3.63;2.30;;;;;;;;;;4929944;29;20056;-72
2022/07/30 04:56:46;;;;;;;4.03;2.28;;;;;;;;;;4929676;29;20052;-72
2022/07/30 04:59:24;;;;;;;3.05;2.25;;;;;;;;;;4931750;29;20051;-71
2022/07/30 05:01:58;;;;;;;3.95;2.53;;;;;;;;;;4931094;29;20059;-72
2022/07/30 05:04:31;;;;;;;8.55;2.83;;;;;;;;;;4928873;29;20051;-72
2022/07/30 05:07:04;;;;;;;4.40;2.67;;;;;;;;;;4931095;29;20048;-72
2022/07/30 05:09:34;;;;;;;5.45;2.97;;;;;;;;;;4930874;29;20040;-71
2022/07/30 05:12:04;;;;;;;6.00;3.25;;;;;;;;;;4929568;29;20078;-72
2022/07/30 05:14:34;;;;;;;6.15;3.28;;;;;;;;;;4929743;29;20500;-72
2022/07/30 05:17:05;;;;;;;5.57;3.67;;;;;;;;;;4929708;29;20051;-72
2022/07/30 05:19:35;;;;;;;5.53;3.28;;;;;;;;;;4929389;29;20083;-73
2022/07/30 05:22:04;;;;;;;;;;;;;;;;;;4931385;29;20754;-71
2022/07/30 05:24:35;;;;;;;4.15;2.65;;;;;;;;;;4929270;29;20288;-71
2022/07/30 05:27:05;;;;;;;5.40;2.90;;;;;;;;;;4929193;29;20063;-71
2022/07/30 05:29:35;;;;;;;5.75;2.60;;;;;;;;;;4929042;29;20059;-71
2022/07/30 05:32:14;;;;;;;4.65;3.08;;;;;;;;;;4928846;29;20914;-71
2022/07/30 05:34:46;;;;;;;5.25;2.75;;;;;;;;;;4928755;29;20059;-70
2022/07/30 05:37:18;;;;;;;5.85;2.83;;;;;;;;;;4928898;29;20077;-71
2022/07/30 05:39:47;;;;;;;4.20;3.25;;;;;;;;;;4929094;29;20804;-71
2022/07/30 05:42:49;;;;;;;4.85;2.90;;;;;;;;;;4930956;29;20123;-71
2022/07/30 05:45:20;;;;;;;4.45;2.92;;;;;;;;;;4928681;29;20052;-71
2022/07/30 05:47:49;;;;;;;4.68;3.53;;;;;;;;;;4928768;29;20052;-72
2022/07/30 05:50:19;;;;;;;4.53;2.85;;;;;;;;;;4929093;29;20420;-71
2022/07/30 05:52:49;;;;;;;;;;;;;;;;;;4929139;29;20048;-71
2022/07/30 05:55:39;;;;;;;7.85;3.67;;;;;;;;;;4909314;29;19922;-72
2022/07/30 05:58:16;;;;;;;4.53;3.15;;;;;;;;;;4928402;29;20055;-71
2022/07/30 06:00:48;;;;;;;4.32;2.63;;;;;;;;;;4930036;29;20432;-71
2022/07/30 06:03:20;;;;;;;6.53;2.90;;;;;;;;;;4929265;29;20066;-72
2022/07/30 06:06:16;;;;;;;5.38;3.17;;;;;;;;;;4929919;29;20051;-71
2022/07/30 06:08:52;;;;;;;3.85;2.55;;;;;;;;;;4928540;29;20534;-71
2022/07/30 06:11:23;;;;;;;4.15;2.65;;;;;;;;;;4929890;29;20055;-71
2022/07/30 06:13:53;;;;;;;5.90;3.05;;;;;;;;;;4928018;29;20060;-70
2022/07/30 06:16:24;;;;;;;5.28;2.95;;;;;;;;;;4928469;29;20420;-71
2022/07/30 06:18:53;;;;;;;;;;;;;;;;;;4928825;29;20419;-71
2022/07/30 06:21:38;;;;;;;5.25;3.35;;;;;;;;;;4928694;29;19926;-71
2022/07/30 06:24:30;;;;;;;4.18;2.65;;;;;;;;;;4928599;29;20051;-71
2022/07/30 06:27:10;;;;;;;3.80;2.72;;;;;;;;;;4928597;29;20052;-71
2022/07/30 06:29:41;;;;;;;5.38;3.50;;;;;;;;;;4928653;29;20083;-71
2022/07/30 06:32:11;;;;;;;7.97;3.38;;;;;;;;;;4928132;29;20058;-71
2022/07/30 06:34:41;;;;;;;7.85;2.95;;;;;;;;;;4928138;29;21175;-71
2022/07/30 06:37:10;;;;;;;;;;;;;;;;;;4928377;29;20420;-71
2022/07/30 06:39:42;;;;;;;7.07;3.60;;;;;;;;;;4928109;29;20382;-71
2022/07/30 06:42:42;;;;;;;4.85;3.15;;;;;;;;;;4929113;29;20059;-71
2022/07/30 06:45:35;;;;;;;4.80;3.33;;;;;;;;;;4927760;29;20056;-71
2022/07/30 06:48:44;;;;;;;4.70;2.83;;;;;;;;;;4889251;29;20242;-71
2022/07/30 06:51:14;;;;;;;5.38;2.55;;;;;;;;;;4889404;29;20055;-71
2022/07/30 06:53:44;;;;;;;6.10;2.50;;;;;;;;;;4908089;29;20054;-71
2022/07/30 06:56:14;;;;;;;6.28;2.72;;;;;;;;;;4934542;29;20553;-71
2022/07/30 06:58:48;;;;;;;5.43;2.58;;;;;;;;;;4927896;29;20082;-70
2022/07/30 07:01:38;;;;;;;5.07;2.50;;;;;;;;;;4930262;29;20052;-71
2022/07/30 07:04:09;;;;;;;4.65;2.55;;;;;;;;;;4927739;29;20056;-73
2022/07/30 07:06:41;;;;;;;6.28;3.47;;;;;;;;;;4929857;29;20459;-71
2022/07/30 07:09:15;;;;;;;5.97;3.40;;;;;;;;;;4927819;29;20070;-71
2022/07/30 07:11:58;;;;;;;4.30;2.88;;;;;;;;;;4927087;29;20058;-71
2022/07/30 07:14:31;;;;;;;4.97;2.63;;;;;;;;;;4927699;29;20044;-72
2022/07/30 07:17:03;;;;;;;4.22;2.45;;;;;;;;;;4927154;29;20051;-71
2022/07/30 07:19:51;;;;;;;4.53;2.50;;;;;;;;;;4932281;29;20546;-71
2022/07/30 07:22:36;;;;;;;7.30;2.97;;;;;;;;;;4927069;29;20422;-71
2022/07/30 07:25:06;;;;;;;4.95;2.67;;;;;;;;;;4927357;29;20056;-71
2022/07/30 07:27:37;;;;;;;4.45;2.72;;;;;;;;;;4931590;29;20508;-72
2022/07/30 07:30:07;;;;;;;8.73;2.70;;;;;;;;;;4930978;29;20052;-71
2022/07/30 07:32:38;;;;;;;6.80;2.47;;;;;;;;;;4931301;29;20044;-71
2022/07/30 07:35:09;;;;;;;3.35;2.42;;;;;;;;;;4931627;29;20059;-72
2022/07/30 07:37:41;;;;;;;5.35;3.53;;;;;;;;;;4931401;29;20055;-70
2022/07/30 07:40:18;;;;;;;4.55;3.08;;;;;;;;;;4931412;29;20054;-71
2022/07/30 07:42:52;;;;;;;6.32;3.17;;;;;;;;;;4931095;29;20060;-70
2022/07/30 07:45:24;;;;;;;4.82;3.00;;;;;;;;;;4931222;29;20500;-71
2022/07/30 07:48:00;;;;;;;6.30;2.75;;;;;;;;;;4930788;29;20059;-71
2022/07/30 07:50:50;;;;;;;8.32;2.80;;;;;;;;;;4931689;29;20059;-71
2022/07/30 07:53:27;;;;;;;5.60;2.90;;;;;;;;;;4930990;29;20062;-72
2022/07/30 07:55:58;;;;;;;4.72;3.08;;;;;;;;;;4931068;29;21394;-71
2022/07/30 07:58:29;;;;;;;4.43;2.90;;;;;;;;;;4930883;29;20593;-71
2022/07/30 08:01:01;;;;;;;6.13;3.00;;;;;;;;;;4931542;29;20424;-71
2022/07/30 08:03:57;;;;;;;7.78;3.03;;;;;;;;;;4916474;29;20067;-72
2022/07/30 08:06:47;;;;;;;7.53;3.42;;;;;;;;;;4931786;29;20597;-71
2022/07/30 08:09:35;;;;;;;6.45;2.95;;;;;;;;;;4936278;29;20060;-71
2022/07/30 08:12:21;;;;;;;5.18;3.45;;;;;;;;;;4930212;29;20048;-71
2022/07/30 08:15:10;;;;;;;;;;;;;;;;;;4932630;29;20431;-71
2022/07/30 08:17:49;;;;;;;6.30;2.85;;;;;;;;;;4936009;29;19927;-72
2022/07/30 08:20:23;;;;;;;7.63;2.88;;;;;;;;;;4930583;29;20056;-71
2022/07/30 08:22:56;;;;;;;4.90;3.08;;;;;;;;;;4930275;29;20056;-71
2022/07/30 08:25:26;;;;;;;5.95;2.90;;;;;;;;;;4929999;29;20055;-70
2022/07/30 08:27:57;;;;;;;4.03;3.15;;;;;;;;;;4931139;29;20416;-71
2022/07/30 08:30:29;;;;;;;5.35;2.88;;;;;;;;;;4930512;29;20411;-71
2022/07/30 08:33:00;;;;;;;6.05;2.85;;;;;;;;;;4930243;29;20059;-71
2022/07/30 08:35:31;;;;;;;3.95;2.67;;;;;;;;;;4931967;29;20052;-71
2022/07/30 08:38:01;;;;;;;5.72;3.00;;;;;;;;;;4929865;29;20060;-72
2022/07/30 08:40:34;;;;;;;6.07;3.28;;;;;;;;;;4930328;29;20443;-71
2022/07/30 08:43:06;;;;;;;7.18;4.03;;;;;;;;;;4929943;29;20062;-71
2022/07/30 08:45:39;;;;;;;5.57;2.88;;;;;;;;;;4929947;29;20542;-71
2022/07/30 08:48:42;;;;;;;4.72;2.83;;;;;;;;;;4900078;29;20055;-71
2022/07/30 08:51:17;;;;;;;4.20;2.85;;;;;;;;;;4930078;29;20232;-71
2022/07/30 08:53:50;;;;;;;4.05;2.47;;;;;;;;;;4933738;29;20066;-72
2022/07/30 08:56:21;;;;;;;6.90;3.10;;;;;;;;;;4929695;29;20060;-72
2022/07/30 08:58:51;;;;;;;5.70;2.88;;;;;;;;;;4929730;29;20051;-71
2022/07/30 09:01:22;;;;;;;3.83;2.97;;;;;;;;;;4930804;29;20062;-71
2022/07/30 09:03:56;;;;;;;5.93;2.90;;;;;;;;;;4929072;29;20067;-71
2022/07/30 09:06:28;;;;;;;4.55;2.95;;;;;;;;;;4929592;29;20063;-72
2022/07/30 09:08:59;;;;;;;6.22;3.67;;;;;;;;;;4930974;29;20423;-72
2022/07/30 09:11:32;;;;;;;4.53;3.00;;;;;;;;;;4929539;29;20511;-72
2022/07/30 09:14:10;;;;;;;5.95;2.92;;;;;;;;;;4930031;29;20055;-71
2022/07/30 09:16:44;;;;;;;6.25;3.33;;;;;;;;;;4929326;29;20060;-71
2022/07/30 09:19:17;;;;;;;4.15;2.90;;;;;;;;;;4929864;29;20056;-71
2022/07/30 09:22:08;;;;;;;5.43;3.22;;;;;;;;;;4929101;29;20055;-72
2022/07/30 09:25:04;;;;;;;5.18;3.05;;;;;;;;;;4922610;29;20052;-73
2022/07/30 09:27:57;;;;;;;4.68;3.28;;;;;;;;;;4925434;29;20134;-73
2022/07/30 09:30:53;;;;;;;5.57;3.40;;;;;;;;;;4934906;29;20048;-72
2022/07/30 09:33:45;;;;;;;4.18;2.60;;;;;;;;;;4932372;29;20059;-72
2022/07/30 09:36:38;;;;;;;5.50;2.72;;;;;;;;;;4920938;29;20428;-72
2022/07/30 09:39:38;;;;;;;3.72;2.05;;;;;;;;;;4933854;29;20055;-72
2022/07/30 09:42:22;;;;;;;6.53;2.55;;;;;;;;;;4930176;29;20397;-72
2022/07/30 09:45:05;;;;;;;5.82;2.90;;;;;;;;;;4928812;29;20067;-72
2022/07/30 09:47:47;;;;;;;4.00;3.10;;;;;;;;;;4929134;29;20052;-72
2022/07/30 09:50:19;;;;;;;4.05;2.65;;;;;;;;;;4927667;29;20427;-72
2022/07/30 09:53:08;;;;;;;5.03;3.05;;;;;;;;;;4937836;29;20043;-72
2022/07/30 09:55:43;;;;;;;4.35;3.30;;;;;;;;;;4944754;29;20054;-72
2022/07/30 09:58:14;;;;;;;5.68;3.55;;;;;;;;;;4945717;29;20055;-71
2022/07/30 10:00:57;;;;;;;11.43;3.33;;;;;;;;;;4933591;29;20052;-75
2022/07/30 10:03:47;;;;;;;12.73;3.60;;;;;;;;;;4942086;28;20059;-72
2022/07/30 10:06:36;;;;;;;6.90;2.90;;;;;;;;;;4951712;28;20738;-73
2022/07/30 10:09:32;;;;;;;4.97;2.88;;;;;;;;;;4930766;29;20047;-72
2022/07/30 10:12:09;;;;;;;6.55;2.38;;;;;;;;;;4931012;29;20440;-72
2022/07/30 10:14:46;;;;;;;4.97;2.92;;;;;;;;;;4931607;29;20511;-72
2022/07/30 10:17:20;;;;;;;6.50;2.83;;;;;;;;;;4931694;29;20502;-72
2022/07/30 10:20:14;;;;;;;4.50;3.10;;;;;;;;;;4930911;29;20051;-78
2022/07/30 10:23:20;;;;;;;6.70;2.63;;;;;;;;;;4947947;29;20055;-72
2022/07/30 10:26:13;;;;;;;4.05;2.75;;;;;;;;;;4949692;28;20055;-72
2022/07/30 10:29:17;;;;;;;;;;;;;;;;;;4936647;29;20404;-73
2022/07/30 10:31:49;;;;;;;4.43;2.88;;;;;;;;;;4932342;29;19922;-72
2022/07/30 10:34:22;;;;;;;8.18;2.65;;;;;;;;;;4949264;29;20050;-72
2022/07/30 10:37:02;;;;;;;5.32;2.80;;;;;;;;;;4947961;29;20365;-76
2022/07/30 10:39:44;;;;;;;6.95;2.85;;;;;;;;;;4947540;29;20055;-72
2022/07/30 10:42:32;;;;;;;4.35;2.88;;;;;;;;;;4947806;29;20412;-73
2022/07/30 10:45:08;;;;;;;3.88;2.50;;;;;;;;;;4948239;29;20059;-72
2022/07/30 10:47:51;;;;;;;4.82;2.53;;;;;;;;;;4948636;29;20039;-72
2022/07/30 10:50:28;;;;;;;6.45;3.33;;;;;;;;;;4948841;29;20047;-72
2022/07/30 10:53:00;;;;;;;6.60;3.53;;;;;;;;;;4948803;29;20075;-72
2022/07/30 10:55:33;;;;;;;6.82;2.78;;;;;;;;;;4947861;29;20070;-72
2022/07/30 10:58:14;;;;;;;4.95;2.90;;;;;;;;;;4948960;29;20542;-72
2022/07/30 11:00:53;;;;;;;4.47;2.72;;;;;;;;;;4949402;28;20507;-72
2022/07/30 11:03:28;;;;;;;4.57;2.20;;;;;;;;;;4952510;29;20051;-72
2022/07/30 11:06:15;;;;;;;;;;;;;;;;;;4953167;29;20050;-73
2022/07/30 11:08:52;;;;;;;4.82;2.58;;;;;;;;;;4952559;29;19933;-73
2022/07/30 11:11:29;;;;;;;4.38;2.50;;;;;;;;;;4952203;29;20055;-73
2022/07/30 11:14:19;;;;;;;3.65;2.30;;;;;;;;;;4952412;29;20083;-72
2022/07/30 11:16:52;;;;;;;7.68;2.40;;;;;;;;;;4952703;29;20511;-71
2022/07/30 11:19:25;;;;;;;3.42;2.35;;;;;;;;;;4952455;29;20054;-72
2022/07/30 11:22:27;;;;;;;6.22;2.20;;;;;;;;;;4952610;29;20043;-73
2022/07/30 11:24:57;;;;;;;;;;;;;;;;;;4951799;29;20055;-73
2022/07/30 11:27:53;;;;;;;10.65;2.38;;;;;;;;;;4952644;28;20302;-74
2022/07/30 11:30:31;;;;;;;7.18;2.60;;;;;;;;;;4949969;29;20062;-76
2022/07/30 11:33:04;;;;;;;5.95;3.00;;;;;;;;;;4951742;29;20065;-73
2022/07/30 11:35:34;;;;;;;8.18;3.33;;;;;;;;;;4951515;29;20047;-72
2022/07/30 11:38:11;;;;;;;12.60;3.10;;;;;;;;;;4951673;29;20051;-75
2022/07/30 11:40:47;;;;;;;4.43;2.60;;;;;;;;;;4934795;29;20419;-73
2022/07/30 11:43:28;;;;;;;5.78;2.60;;;;;;;;;;4951314;29;20067;-72
2022/07/30 11:46:22;;;;;;;8.02;2.90;;;;;;;;;;4951768;29;20398;-73
2022/07/30 11:49:01;;;;;;;6.82;2.83;;;;;;;;;;4951224;29;20481;-78
2022/07/30 11:51:46;;;;;;;7.55;3.33;;;;;;;;;;4951408;29;20043;-77
2022/07/30 11:54:16;;;;;;;4.85;2.40;;;;;;;;;;4951579;29;20047;-72
2022/07/30 11:56:52;;;;;;;3.92;3.17;;;;;;;;;;4951611;29;20051;-73
2022/07/30 11:59:22;;;;;;;3.58;1.92;;;;;;;;;;4951158;29;20051;-74
2022/07/30 12:01:55;;;;;;;4.22;2.28;;;;;;;;;;4951206;29;20399;-73
2022/07/30 12:04:26;;;;;;;5.85;2.72;;;;;;;;;;4951277;29;20070;-74
2022/07/30 12:06:56;;;;;;;6.28;2.65;;;;;;;;;;4933918;29;20229;-73
2022/07/30 12:09:30;;;;;;;5.35;2.55;;;;;;;;;;4933832;29;20059;-72
2022/07/30 12:12:02;;;;;;;3.50;1.70;;;;;;;;;;4949826;28;20518;-72
2022/07/30 12:14:38;;;;;;;4.75;2.60;;;;;;;;;;4951131;29;20051;-72
2022/07/30 12:17:08;;;;;;;5.68;1.98;;;;;;;;;;4933083;29;20051;-73
2022/07/30 12:19:47;;;;;;;3.28;1.83;;;;;;;;;;4951150;29;20411;-74
2022/07/30 12:22:18;;;;;;;3.63;2.03;;;;;;;;;;4951329;29;20499;-75
2022/07/30 12:24:48;;;;;;;5.55;2.55;;;;;;;;;;4950839;29;20055;-73
2022/07/30 12:27:18;;;;;;;3.70;2.47;;;;;;;;;;4950777;29;20051;-76
2022/07/30 12:29:48;;;;;;;4.18;2.45;;;;;;;;;;4950643;28;20074;-73
2022/07/30 12:32:18;;;;;;;4.10;2.70;;;;;;;;;;4950824;29;20055;-72
2022/07/30 12:34:55;;;;;;;4.68;2.30;;;;;;;;;;4950478;29;20423;-73
2022/07/30 12:37:25;;;;;;;2.75;1.98;;;;;;;;;;4950422;29;20419;-73
2022/07/30 12:40:15;;;;;;;6.05;1.92;;;;;;;;;;4950707;29;20842;-73
2022/07/30 12:42:54;;;;;;;4.20;2.70;;;;;;;;;;4951241;29;20043;-74
2022/07/30 12:45:31;;;;;;;3.97;2.70;;;;;;;;;;4949392;29;20062;-74
2022/07/30 12:48:21;;;;;;;6.22;2.67;;;;;;;;;;4950618;29;20054;-75
2022/07/30 12:51:06;;;;;;;7.38;3.20;;;;;;;;;;4951017;29;20077;-74
2022/07/30 12:53:37;;;;;;;8.18;2.70;;;;;;;;;;4950386;29;20062;-74
2022/07/30 12:56:33;;;;;;;5.20;2.30;;;;;;;;;;4950540;29;20078;-73
2022/07/30 12:59:03;;;;;;;3.67;2.40;;;;;;;;;;4949675;29;20057;-73
2022/07/30 13:01:44;;;;;;;4.82;3.05;;;;;;;;;;4949848;29;20500;-73
2022/07/30 13:04:14;;;;;;;4.75;2.85;;;;;;;;;;4949338;29;20059;-74
2022/07/30 13:07:02;;;;;;;5.22;2.88;;;;;;;;;;4948731;29;20055;-73
2022/07/30 13:09:32;;;;;;;2.90;2.30;;;;;;;;;;4948780;29;20050;-74
2022/07/30 13:12:04;;;;;;;5.70;2.80;;;;;;;;;;4947384;29;20051;-74
2022/07/30 13:14:34;;;;;;;7.70;3.05;;;;;;;;;;4947016;29;20047;-73
2022/07/30 13:17:04;;;;;;;5.22;3.20;;;;;;;;;;4930512;29;20047;-73
2022/07/30 13:19:35;;;;;;;5.45;2.90;;;;;;;;;;4947246;29;20051;-75
2022/07/30 13:22:04;;;;;;;4.57;2.95;;;;;;;;;;4929678;29;20515;-76
2022/07/30 13:24:34;;;;;;;3.38;2.63;;;;;;;;;;4947504;28;20058;-73
2022/07/30 13:27:07;;;;;;;5.07;3.00;;;;;;;;;;4947807;29;20058;-72
2022/07/30 13:29:37;;;;;;;7.00;2.65;;;;;;;;;;4947725;29;20582;-73
2022/07/30 13:32:07;;;;;;;9.10;3.17;;;;;;;;;;4948121;28;20054;-73
2022/07/30 13:34:38;;;;;;;7.03;3.25;;;;;;;;;;4946705;29;20058;-74
2022/07/30 13:37:09;;;;;;;9.43;3.22;;;;;;;;;;4947253;29;20067;-77
2022/07/30 13:39:39;;;;;;;4.88;3.50;;;;;;;;;;4946760;28;20498;-78
2022/07/30 13:42:09;;;;;;;5.30;3.15;;;;;;;;;;4946288;29;20055;-77
2022/07/30 13:44:39;;;;;;;3.47;3.08;;;;;;;;;;4946456;29;20059;-73
2022/07/30 13:47:10;;;;;;;5.05;3.55;;;;;;;;;;4947124;29;20632;-73
2022/07/30 13:49:44;;;;;;;6.13;4.75;;;;;;;;;;4946697;28;20047;-74
2022/07/30 13:52:14;;;;;;;5.82;2.78;;;;;;;;;;4947029;29;20050;-75
2022/07/30 13:54:44;;;;;;;5.35;2.80;;;;;;;;;;4929415;29;20084;-74
2022/07/30 13:57:14;;;;;;;4.57;2.58;;;;;;;;;;4946346;29;20046;-73
2022/07/30 13:59:45;;;;;;;4.20;2.58;;;;;;;;;;4947660;29;20055;-74
2022/07/30 14:02:15;;;;;;;3.08;2.28;;;;;;;;;;4948672;29;20062;-72
2022/07/30 14:04:45;;;;;;;3.88;2.22;;;;;;;;;;4947933;29;20055;-72
2022/07/30 14:07:15;;;;;;;3.08;2.25;;;;;;;;;;4948745;28;20054;-73
2022/07/30 14:09:45;;;;;;;3.53;2.20;;;;;;;;;;4949149;29;20047;-73
2022/07/30 14:12:21;;;;;;;4.82;2.60;;;;;;;;;;4948195;29;20062;-74
2022/07/30 14:14:51;;;;;;;3.17;2.13;;;;;;;;;;4948141;29;20055;-73
2022/07/30 14:17:21;;;;;;;6.00;2.45;;;;;;;;;;4929111;29;20547;-73
2022/07/30 14:19:53;;;;;;;2.05;1.50;;;;;;;;;;4949613;29;20607;-74
2022/07/30 14:22:23;;;;;;;2.22;1.45;;;;;;;;;;4948643;29;20051;-72
2022/07/30 14:24:53;;;;;;;2.35;1.30;;;;;;;;;;4948178;28;20518;-73
2022/07/30 14:27:23;;;;;;;3.20;1.38;;;;;;;;;;4948317;29;20058;-74
2022/07/30 14:29:53;;;;;;;9.57;1.63;;;;;;;;;;4947313;28;20474;-73
2022/07/30 14:32:23;;;;;;;1.20;1.05;;;;;;;;;;4946420;29;20051;-75
2022/07/30 14:35:00;;;;;;;2.42;1.10;;;;;;;;;;4946512;28;20047;-73
2022/07/30 14:37:32;;;;;;;3.65;1.17;;;;;;;;;;4947861;28;20058;-72
2022/07/30 14:40:02;;;;;;;2.45;1.00;;;;;;;;;;4947773;29;20051;-73
2022/07/30 14:42:32;;;;;;;1.67;1.30;;;;;;;;;;4948169;29;20050;-73
2022/07/30 14:45:08;;;;;;;1.63;1.33;;;;;;;;;;4948622;29;20063;-72
2022/07/30 14:47:39;;;;;;;2.17;1.25;;;;;;;;;;4948928;29;20051;-72
2022/07/30 15:10:30;;;;;;;3.08;1.33;;;;;;;;;;5166912;27;20218;-71
2022/07/30 15:13:00;;;;;;;1.65;1.20;;;;;;;;;;5145374;27;20062;-71
2022/07/30 15:15:32;;;;;;;3.13;1.23;;;;;;;;;;5144938;27;20498;-73
2022/07/30 15:18:06;;;;;;;2.30;1.75;;;;;;;;;;5145463;27;20484;-72
2022/07/30 15:20:36;;;;;;;5.03;1.92;;;;;;;;;;5146341;27;20043;-72
2022/07/30 15:23:06;;;;;;;4.05;1.50;;;;;;;;;;5145662;27;20043;-72
2022/07/30 15:25:41;;;;;;;1.45;1.20;;;;;;;;;;5109946;27;20075;-70
2022/07/30 15:28:12;;;;;;;2.28;1.30;;;;;;;;;;5145296;27;20051;-73
2022/07/30 15:30:42;;;;;;;2.15;1.50;;;;;;;;;;5144566;27;20047;-72
2022/07/30 15:33:12;;;;;;;3.28;1.60;;;;;;;;;;5143795;27;20035;-74
2022/07/30 15:35:42;;;;;;;4.45;2.22;;;;;;;;;;5142992;27;20054;-74
2022/07/30 15:38:12;;;;;;;6.07;2.63;;;;;;;;;;5142834;27;20501;-74
2022/07/30 15:40:44;;;;;;;4.47;1.70;;;;;;;;;;5143703;27;20058;-72
2022/07/30 15:43:14;;;;;;;3.50;1.88;;;;;;;;;;5145045;27;20412;-73
2022/07/30 15:45:43;;;;;;;7.28;2.05;;;;;;;;;;5145503;27;20054;-73
2022/07/30 15:48:25;;;;;;;1.83;1.58;;;;;;;;;;5125351;27;20051;-72
2022/07/30 15:51:01;;;;;;;5.93;1.50;;;;;;;;;;5142823;27;20510;-73
2022/07/30 15:53:32;;;;;;;2.25;1.35;;;;;;;;;;5143801;27;20039;-72
2022/07/30 15:56:02;;;;;;;2.58;1.17;;;;;;;;;;5144720;27;20046;-72
2022/07/30 15:58:32;;;;;;;4.63;1.73;;;;;;;;;;5144717;27;20445;-77
2022/07/30 16:01:04;;;;;;;2.90;1.25;;;;;;;;;;5144483;27;20473;-73
2022/07/30 16:03:34;;;;;;;2.25;1.42;;;;;;;;;;5130688;27;20036;-73